Time;durP1;ratioP1;P1;durP2;ratioP2;P2;SDS_P1;SDS_P2;PMS_P1;PMS_P2;Temp;Humidity;BMP_temperature;BMP_pressure;BME280_temperature;BME280_humidity;BME280_pressure;Samples;Min_cycle;Max_cycle;Signal;HPM_P1;HPM_P2
2022/08/13 00:00:14;;;;;;;5.13;3.05;;;20.70;97.60;;;;;;5015605;28;20095;-81
2022/08/13 00:02:42;;;;;;;5.22;2.92;;;20.70;98.00;;;;;;5015459;28;20050;-81
2022/08/13 00:05:09;;;;;;;4.85;3.00;;;20.60;98.20;;;;;;5015549;28;20437;-81
2022/08/13 00:07:35;;;;;;;7.05;2.92;;;20.50;98.30;;;;;;5015126;28;20551;-81
2022/08/13 00:10:04;;;;;;;4.72;2.90;;;20.50;98.50;;;;;;5015010;28;20481;-81
2022/08/13 00:15:35;;;;;;;3.20;2.47;;;20.40;98.80;;;;;;5014510;28;20057;-81
2022/08/13 00:18:05;;;;;;;6.75;2.80;;;20.30;97.50;;;;;;5015344;28;20053;-81
2022/08/13 00:20:38;;;;;;;5.00;2.97;;;20.30;98.40;;;;;;5015028;28;20122;-81
2022/08/13 00:23:07;;;;;;;9.93;3.22;;;20.30;98.50;;;;;;5015191;28;20049;-82
2022/08/13 00:25:33;;;;;;;8.02;2.88;;;20.30;98.60;;;;;;5015364;28;20493;-81
2022/08/13 00:28:00;;;;;;;4.15;2.60;;;20.30;98.60;;;;;;5015434;28;20061;-80
2022/08/13 00:30:33;;;;;;;8.05;2.80;;;20.30;98.40;;;;;;5015206;28;20050;-80
2022/08/13 00:33:05;;;;;;;7.03;3.13;;;20.20;98.10;;;;;;5014592;28;20045;-82
2022/08/13 00:35:35;;;;;;;5.47;2.70;;;20.20;97.90;;;;;;5015251;28;20042;-80
2022/08/13 00:38:01;;;;;;;5.43;2.58;;;20.20;97.40;;;;;;5015223;28;20050;-80
2022/08/13 00:40:29;;;;;;;5.13;2.57;;;20.10;97.10;;;;;;5014909;28;20117;-80
2022/08/13 00:43:02;;;;;;;4.97;2.60;;;20.10;97.10;;;;;;5014887;28;20082;-80
2022/08/13 00:45:30;;;;;;;6.60;2.78;;;20.10;97.00;;;;;;5013535;28;20057;-80
2022/08/13 00:50:40;;;;;;;8.68;2.70;;;20.10;96.50;;;;;;5014617;28;20547;-80
2022/08/13 00:53:08;;;;;;;5.55;2.30;;;20.00;96.20;;;;;;5014689;28;20161;-80
2022/08/13 00:55:33;;;;;;;5.90;2.50;;;20.10;96.20;;;;;;5014548;28;20049;-81
2022/08/13 00:57:59;;;;;;;6.10;2.50;;;20.10;96.10;;;;;;5014256;28;20048;-80
2022/08/13 01:00:26;;;;;;;6.07;2.50;;;20.10;96.30;;;;;;5014647;28;20045;-81
2022/08/13 01:02:54;;;;;;;8.63;2.50;;;20.00;96.40;;;;;;5014540;28;20042;-80
2022/08/13 01:05:20;;;;;;;5.15;2.42;;;20.00;96.10;;;;;;5014452;28;20045;-80
2022/08/13 01:07:46;;;;;;;11.17;2.50;;;20.00;96.30;;;;;;5013577;28;20430;-80
2022/08/13 01:10:15;;;;;;;3.80;2.20;;;20.00;96.10;;;;;;5014292;28;20100;-81
2022/08/13 01:12:44;;;;;;;4.25;2.22;;;20.00;95.80;;;;;;5013084;28;20053;-81
2022/08/13 01:15:12;;;;;;;7.15;2.42;;;19.90;96.00;;;;;;5014165;28;20041;-80
2022/08/13 01:17:39;;;;;;;3.55;2.33;;;19.90;95.70;;;;;;5014221;28;20042;-80
2022/08/13 01:20:09;;;;;;;4.30;2.35;;;19.90;95.80;;;;;;5014208;28;20046;-80
2022/08/13 01:22:36;;;;;;;3.60;2.20;;;19.90;95.70;;;;;;5013183;28;20497;-80
2022/08/13 01:25:05;;;;;;;6.63;2.50;;;19.80;95.60;;;;;;5013850;28;20129;-80
2022/08/13 01:27:31;;;;;;;4.40;2.25;;;19.80;95.60;;;;;;5014155;28;20041;-81
2022/08/13 01:30:01;;;;;;;5.53;2.38;;;19.80;95.80;;;;;;5012924;28;20045;-81
2022/08/13 01:32:27;;;;;;;5.32;2.33;;;19.70;95.60;;;;;;5014267;28;20046;-81
2022/08/13 01:34:53;;;;;;;3.75;2.47;;;19.70;95.70;;;;;;5014195;28;20433;-81
2022/08/13 01:37:20;;;;;;;7.82;2.10;;;19.70;95.60;;;;;;5013728;28;20088;-80
2022/08/13 01:39:45;;;;;;;;;;;19.70;95.70;;;;;;5014416;28;20077;-80
2022/08/13 01:42:16;;;;;;;4.05;2.15;;;19.60;95.40;;;;;;5014141;28;19971;-80
2022/08/13 01:44:43;;;;;;;4.40;2.00;;;19.50;95.40;;;;;;4996053;28;20050;-80
2022/08/13 01:52:41;;;;;;;5.13;2.22;;;19.50;95.60;;;;;;5013840;28;20486;-80
2022/08/13 01:55:08;;;;;;;4.35;2.08;;;19.50;95.60;;;;;;5013854;28;20058;-82
2022/08/13 01:57:36;;;;;;;3.45;1.92;;;19.40;95.40;;;;;;5013742;28;20390;-81
2022/08/13 02:00:07;;;;;;;5.60;2.33;;;19.40;95.40;;;;;;5013674;28;20081;-80
2022/08/13 02:02:32;;;;;;;4.97;2.20;;;19.40;95.30;;;;;;5012559;28;20038;-80
2022/08/13 02:04:58;;;;;;;4.17;2.20;;;19.30;95.40;;;;;;5012619;28;20053;-80
2022/08/13 02:07:24;;;;;;;3.97;1.90;;;19.30;95.30;;;;;;5013748;28;20549;-80
2022/08/13 02:09:49;;;;;;;5.53;2.13;;;19.30;95.20;;;;;;5012250;28;20053;-81
2022/08/13 02:12:15;;;;;;;5.40;2.20;;;19.30;95.10;;;;;;5013727;28;20082;-81
2022/08/13 02:14:45;;;;;;;5.70;2.33;;;19.20;94.80;;;;;;5012754;28;20046;-81
2022/08/13 02:17:27;;;;;;;5.65;2.10;;;19.20;94.80;;;;;;5013494;28;20038;-80
2022/08/13 02:19:54;;;;;;;4.32;2.10;;;19.20;94.80;;;;;;5012633;28;20408;-81
2022/08/13 02:22:22;;;;;;;4.00;2.30;;;19.10;94.80;;;;;;5013627;28;20045;-81
2022/08/13 02:24:59;;;;;;;3.50;2.17;;;19.10;94.90;;;;;;5013430;28;20054;-81
2022/08/13 02:27:25;;;;;;;3.58;2.00;;;19.10;94.70;;;;;;5013892;28;20538;-81
2022/08/13 02:29:53;;;;;;;4.83;2.10;;;19.10;95.00;;;;;;5013614;28;20092;-81
2022/08/13 02:32:19;;;;;;;2.95;2.17;;;19.10;95.10;;;;;;5013133;28;20293;-81
2022/08/13 02:34:49;;;;;;;3.05;2.20;;;19.00;94.90;;;;;;5012514;28;20141;-81
2022/08/13 02:37:16;;;;;;;3.70;1.90;;;19.00;95.00;;;;;;5013396;28;20046;-80
2022/08/13 02:39:42;;;;;;;4.45;2.10;;;18.90;95.00;;;;;;5012283;28;20042;-81
2022/08/13 02:42:09;;;;;;;;;;;18.90;95.20;;;;;;5013904;28;20046;-81
2022/08/13 02:44:35;;;;;;;6.03;2.15;;;18.80;95.40;;;;;;5028449;28;20020;-80
2022/08/13 02:47:05;;;;;;;7.47;2.22;;;18.80;95.10;;;;;;5014127;28;20385;-80
2022/08/13 02:49:31;;;;;;;4.68;2.08;;;18.70;95.00;;;;;;5013681;28;20405;-80
2022/08/13 02:51:58;;;;;;;3.63;2.00;;;18.80;94.90;;;;;;5012240;28;20046;-81
2022/08/13 02:54:25;;;;;;;4.15;2.20;;;18.80;95.00;;;;;;5013371;28;20125;-81
2022/08/13 02:56:50;;;;;;;4.70;2.03;;;18.80;95.00;;;;;;5016104;28;20435;-81
2022/08/13 02:59:16;;;;;;;4.37;2.57;;;18.70;95.10;;;;;;5016863;28;20045;-81
2022/08/13 03:01:43;;;;;;;4.87;2.00;;;18.70;95.30;;;;;;5017326;28;20486;-81
2022/08/13 03:04:08;;;;;;;;;;;18.60;95.50;;;;;;5000006;28;20050;-80
2022/08/13 03:06:34;;;;;;;6.43;2.20;;;18.60;95.40;;;;;;5015525;28;19921;-80
2022/08/13 03:09:01;;;;;;;3.17;1.90;;;18.60;95.30;;;;;;5016687;28;20042;-80
2022/08/13 03:11:29;;;;;;;3.97;2.20;;;18.60;95.50;;;;;;5016789;28;20289;-82
2022/08/13 03:14:03;;;;;;;3.33;1.95;;;18.50;95.40;;;;;;5016272;28;20081;-81
2022/08/13 03:16:29;;;;;;;5.95;2.28;;;18.50;95.60;;;;;;5015911;28;20382;-79
2022/08/13 03:18:57;;;;;;;4.77;2.20;;;18.50;95.70;;;;;;5016712;28;20048;-79
2022/08/13 03:21:32;;;;;;;4.53;2.47;;;18.50;95.70;;;;;;5016540;28;20125;-79
2022/08/13 03:23:59;;;;;;;3.92;2.00;;;18.40;95.80;;;;;;5016423;28;20046;-80
2022/08/13 03:26:25;;;;;;;5.75;2.10;;;18.40;95.80;;;;;;5015974;28;20045;-80
2022/08/13 03:28:51;;;;;;;5.33;2.37;;;18.40;95.80;;;;;;5016686;28;20049;-80
2022/08/13 03:31:21;;;;;;;6.95;2.17;;;18.40;95.90;;;;;;5016217;28;20037;-80
2022/08/13 03:33:47;;;;;;;6.13;2.40;;;18.40;96.00;;;;;;5014897;28;20042;-80
2022/08/13 03:36:13;;;;;;;7.05;2.30;;;18.30;96.00;;;;;;5014917;28;20132;-79
2022/08/13 03:38:39;;;;;;;2.90;1.80;;;18.30;96.10;;;;;;5016142;28;20169;-81
2022/08/13 03:41:11;;;;;;;3.60;2.10;;;18.20;96.20;;;;;;5015994;28;20501;-81
2022/08/13 03:43:42;;;;;;;4.75;2.40;;;18.20;96.30;;;;;;5015014;28;20580;-81
2022/08/13 03:46:10;;;;;;;5.18;2.17;;;18.20;96.20;;;;;;5016247;28;20124;-81
2022/08/13 03:48:36;;;;;;;3.35;2.20;;;18.30;96.20;;;;;;5015931;28;20096;-81
2022/08/13 03:51:03;;;;;;;4.18;2.20;;;18.20;96.10;;;;;;5015903;28;20056;-81
2022/08/13 03:53:29;;;;;;;3.42;2.30;;;18.10;96.20;;;;;;5015673;28;20052;-80
2022/08/13 03:55:56;;;;;;;7.32;2.40;;;18.10;96.30;;;;;;5015698;28;20084;-81
2022/08/13 03:58:23;;;;;;;4.35;2.10;;;18.00;96.30;;;;;;5015684;28;20046;-81
2022/08/13 04:00:48;;;;;;;;;;;18.00;96.50;;;;;;5014897;28;20046;-81
2022/08/13 04:03:29;;;;;;;3.10;2.10;;;18.00;96.40;;;;;;5015704;28;20376;-81
2022/08/13 04:05:59;;;;;;;5.05;2.10;;;18.10;96.60;;;;;;5015209;28;20389;-80
2022/08/13 04:08:27;;;;;;;4.57;2.28;;;18.00;96.60;;;;;;5015912;28;20097;-81
2022/08/13 04:10:53;;;;;;;5.28;2.30;;;18.10;96.60;;;;;;5015484;28;20062;-81
2022/08/13 04:13:19;;;;;;;4.50;2.50;;;18.00;96.60;;;;;;5014375;28;20378;-80
2022/08/13 04:15:46;;;;;;;3.57;1.90;;;18.00;96.50;;;;;;5015333;28;20044;-80
2022/08/13 04:18:15;;;;;;;6.35;2.10;;;17.90;96.60;;;;;;5015338;28;20477;-81
2022/08/13 04:20:41;;;;;;;7.28;2.20;;;18.00;96.80;;;;;;5014176;28;20042;-81
2022/08/13 04:23:16;;;;;;;;;;;17.90;96.90;;;;;;5015782;28;20045;-81
2022/08/13 04:25:47;;;;;;;4.25;2.03;;;17.90;97.50;;;;;;5014056;28;20020;-81
2022/08/13 04:28:14;;;;;;;4.50;2.08;;;17.90;96.60;;;;;;5015168;28;20094;-81
2022/08/13 04:30:41;;;;;;;4.22;2.13;;;17.90;96.60;;;;;;5014104;28;20042;-81
2022/08/13 04:33:15;;;;;;;4.45;1.90;;;17.90;96.80;;;;;;5014208;28;20141;-81
2022/08/13 04:35:43;;;;;;;3.35;1.90;;;17.90;96.60;;;;;;5013976;28;20056;-81
2022/08/13 04:38:08;;;;;;;6.05;2.10;;;18.00;96.60;;;;;;5015015;28;20054;-81
2022/08/13 04:40:40;;;;;;;6.03;2.17;;;17.90;96.70;;;;;;5015373;28;20044;-81
2022/08/13 04:43:07;;;;;;;4.47;2.03;;;17.90;96.80;;;;;;5013772;28;20125;-81
2022/08/13 04:45:34;;;;;;;4.68;2.20;;;18.00;96.70;;;;;;5014948;28;20045;-81
2022/08/13 04:48:04;;;;;;;3.85;2.25;;;17.90;96.70;;;;;;5015200;28;20088;-81
2022/08/13 04:50:33;;;;;;;4.30;1.95;;;18.00;97.10;;;;;;5014930;28;20477;-81
2022/08/13 04:53:05;;;;;;;4.72;2.10;;;17.90;97.00;;;;;;5013839;28;20073;-81
2022/08/13 04:55:31;;;;;;;5.47;2.10;;;18.00;97.10;;;;;;5014672;28;20132;-80
2022/08/13 04:57:57;;;;;;;4.00;2.23;;;17.90;97.30;;;;;;4997454;28;20133;-81
2022/08/13 05:00:32;;;;;;;3.20;2.00;;;17.90;97.50;;;;;;5014479;28;20495;-82
2022/08/13 05:03:10;;;;;;;6.15;1.90;;;17.80;97.50;;;;;;5014666;28;20128;-81
2022/08/13 05:05:36;;;;;;;4.97;2.20;;;17.90;97.80;;;;;;5014615;28;20042;-79
2022/08/13 05:08:04;;;;;;;4.07;2.10;;;17.90;97.60;;;;;;5014201;28;20522;-81
2022/08/13 05:10:31;;;;;;;6.28;1.92;;;17.90;97.10;;;;;;5014542;28;20050;-80
2022/08/13 05:13:03;;;;;;;;;;;18.00;97.30;;;;;;5014758;28;20037;-80
2022/08/13 05:15:29;;;;;;;5.30;1.98;;;18.00;97.10;;;;;;5014338;28;20008;-80
2022/08/13 05:17:55;;;;;;;6.90;2.37;;;18.00;97.20;;;;;;4997245;28;20438;-81
2022/08/13 05:20:20;;;;;;;5.83;2.20;;;18.10;97.20;;;;;;5014247;28;20125;-79
2022/08/13 05:22:46;;;;;;;7.50;2.43;;;18.10;96.90;;;;;;5014362;28;20486;-80
2022/08/13 05:25:14;;;;;;;6.80;2.10;;;18.10;97.40;;;;;;5014271;28;20041;-82
2022/08/13 05:27:41;;;;;;;3.63;1.95;;;18.10;97.40;;;;;;5012780;28;20048;-80
2022/08/13 05:30:07;;;;;;;2.55;2.10;;;18.20;97.50;;;;;;5014131;28;20045;-83
2022/08/13 05:32:38;;;;;;;5.07;2.20;;;18.20;97.30;;;;;;4996703;28;20409;-83
2022/08/13 05:35:10;;;;;;;7.40;2.00;;;18.20;97.10;;;;;;5013211;28;20556;-82
2022/08/13 05:37:36;;;;;;;5.03;2.08;;;18.30;97.10;;;;;;5014039;28;20045;-81
2022/08/13 05:40:03;;;;;;;3.70;1.90;;;18.30;97.20;;;;;;5014019;28;20081;-84
2022/08/13 05:42:33;;;;;;;4.57;1.90;;;18.40;97.30;;;;;;5014745;28;20049;-80
2022/08/13 05:44:59;;;;;;;6.25;1.90;;;18.40;97.50;;;;;;5013363;28;20081;-83
2022/08/13 05:47:25;;;;;;;4.57;1.90;;;18.50;97.40;;;;;;5013554;28;20068;-82
2022/08/13 05:49:52;;;;;;;8.33;2.00;;;18.50;97.30;;;;;;5014010;28;20038;-81
2022/08/13 05:52:18;;;;;;;4.28;1.70;;;18.50;97.20;;;;;;5012765;28;20061;-81
2022/08/13 05:54:43;;;;;;;3.20;1.77;;;18.60;97.10;;;;;;5013625;28;20038;-81
2022/08/13 05:57:09;;;;;;;3.30;1.80;;;18.60;96.70;;;;;;5012868;28;20172;-83
2022/08/13 06:05:15;;;;;;;3.80;1.60;;;18.90;96.50;;;;;;4960619;28;20055;-82
2022/08/13 06:07:41;;;;;;;;;;;19.00;96.10;;;;;;5013752;28;20053;-81
2022/08/13 06:10:07;;;;;;;4.30;1.60;;;19.10;96.50;;;;;;5012640;28;19925;-81
2022/08/13 06:12:33;;;;;;;6.40;2.10;;;19.20;96.00;;;;;;5012884;28;20060;-83
2022/08/13 06:14:58;;;;;;;4.07;1.67;;;19.30;96.30;;;;;;5014024;28;20069;-83
2022/08/13 06:17:24;;;;;;;5.27;2.07;;;19.50;95.60;;;;;;4996249;28;20065;-81
2022/08/13 06:19:51;;;;;;;3.30;1.80;;;19.60;95.30;;;;;;5014108;28;20053;-80
2022/08/13 06:22:19;;;;;;;3.85;1.70;;;19.90;94.90;;;;;;5013580;28;20060;-79
2022/08/13 06:24:47;;;;;;;6.50;1.73;;;20.00;94.40;;;;;;5012423;28;20397;-82
2022/08/13 06:27:12;;;;;;;5.72;2.00;;;20.20;94.20;;;;;;5013620;28;20049;-79
2022/08/13 06:29:41;;;;;;;5.63;1.63;;;20.40;94.00;;;;;;5013810;28;20545;-85
2022/08/13 06:32:08;;;;;;;6.60;1.90;;;20.60;93.80;;;;;;5017070;28;20042;-81
2022/08/13 06:34:35;;;;;;;8.75;1.73;;;20.80;93.40;;;;;;5017512;28;20054;-83
2022/08/13 06:37:04;;;;;;;6.93;1.70;;;21.10;93.50;;;;;;5016977;28;20496;-84
2022/08/13 06:39:32;;;;;;;2.97;1.60;;;21.20;93.40;;;;;;5017264;28;20049;-80
2022/08/13 06:42:04;;;;;;;3.95;1.90;;;21.40;93.00;;;;;;5017159;28;20482;-80
2022/08/13 06:44:33;;;;;;;2.67;1.50;;;21.60;92.80;;;;;;5016250;28;20394;-79
2022/08/13 06:47:04;;;;;;;4.38;1.73;;;21.80;92.60;;;;;;5019712;28;20037;-80
2022/08/13 06:49:34;;;;;;;4.47;1.70;;;22.00;92.20;;;;;;5015391;28;20477;-80
2022/08/13 06:52:00;;;;;;;3.20;1.50;;;22.10;92.20;;;;;;5016938;28;20050;-80
2022/08/13 06:54:26;;;;;;;6.70;1.52;;;22.30;92.30;;;;;;5017265;28;20042;-79
2022/08/13 06:56:54;;;;;;;5.07;1.50;;;22.50;92.10;;;;;;5015701;28;20042;-80
2022/08/13 06:59:23;;;;;;;3.95;1.50;;;22.70;91.80;;;;;;5016846;28;20034;-79
2022/08/13 07:01:57;;;;;;;4.38;1.45;;;22.90;91.50;;;;;;5016689;28;20404;-80
2022/08/13 07:04:23;;;;;;;5.53;1.58;;;23.00;91.50;;;;;;5017130;28;20492;-79
2022/08/13 07:06:49;;;;;;;6.40;1.40;;;23.20;91.10;;;;;;5016741;28;20049;-79
2022/08/13 07:09:17;;;;;;;2.00;1.13;;;23.30;91.20;;;;;;5016954;28;20062;-80
2022/08/13 07:11:45;;;;;;;4.97;1.60;;;23.50;91.20;;;;;;5016577;28;20050;-81
2022/08/13 07:14:13;;;;;;;4.25;1.50;;;23.60;90.90;;;;;;5015234;28;20137;-81
2022/08/13 07:16:44;;;;;;;4.53;1.65;;;23.70;90.80;;;;;;5016238;28;20474;-81
2022/08/13 07:19:13;;;;;;;3.72;1.20;;;23.90;90.70;;;;;;5016888;28;20406;-81
2022/08/13 07:21:41;;;;;;;2.33;1.42;;;24.00;90.50;;;;;;5015482;28;20112;-82
2022/08/13 07:24:11;;;;;;;2.85;1.40;;;24.10;90.20;;;;;;5016290;28;20053;-81
2022/08/13 07:26:37;;;;;;;3.10;1.15;;;24.20;90.30;;;;;;5015205;28;20394;-82
2022/08/13 07:29:05;;;;;;;3.72;1.10;;;24.30;90.00;;;;;;5015256;28;20049;-81
2022/08/13 07:31:33;;;;;;;4.20;1.50;;;24.40;88.50;;;;;;5015144;28;20052;-80
2022/08/13 07:34:04;;;;;;;4.20;1.23;;;24.60;89.50;;;;;;5016129;28;20176;-80
2022/08/13 07:36:33;;;;;;;3.63;1.40;;;24.70;89.00;;;;;;5016152;28;20401;-82
2022/08/13 07:39:02;;;;;;;3.28;1.20;;;24.80;88.80;;;;;;4999329;28;20050;-83
2022/08/13 07:41:31;;;;;;;6.32;1.60;;;24.90;88.50;;;;;;4998798;28;20052;-83
2022/08/13 07:43:59;;;;;;;4.53;1.25;;;25.10;88.20;;;;;;4998741;28;20045;-83
2022/08/13 07:46:25;;;;;;;4.60;1.30;;;25.30;88.40;;;;;;5016126;28;20409;-82
2022/08/13 07:48:51;;;;;;;6.45;1.20;;;25.30;88.20;;;;;;5016113;28;20042;-79
2022/08/13 07:51:21;;;;;;;4.43;1.20;;;25.50;88.20;;;;;;5015943;28;20045;-82
2022/08/13 07:53:53;;;;;;;3.05;1.25;;;25.60;88.20;;;;;;5014627;28;20041;-80
2022/08/13 07:56:31;;;;;;;2.90;1.20;;;25.80;88.30;;;;;;5016588;28;20451;-80
2022/08/13 07:59:02;;;;;;;4.32;1.33;;;25.90;87.30;;;;;;5015913;28;20050;-79
2022/08/13 08:01:33;;;;;;;5.53;1.20;;;26.00;87.10;;;;;;5016131;28;20484;-80
2022/08/13 08:04:03;;;;;;;4.45;1.35;;;26.10;86.20;;;;;;5015695;28;20050;-80
2022/08/13 08:06:30;;;;;;;3.47;1.20;;;26.20;86.80;;;;;;5015312;28;20149;-79
2022/08/13 08:08:57;;;;;;;3.83;1.00;;;26.30;84.60;;;;;;5014461;28;20042;-79
2022/08/13 08:14:10;;;;;;;4.53;1.58;;;26.50;84.30;;;;;;5015362;28;20391;-79
2022/08/13 08:16:37;;;;;;;2.97;1.20;;;26.60;84.20;;;;;;5015373;28;20358;-80
2022/08/13 08:19:05;;;;;;;2.92;1.30;;;26.80;84.40;;;;;;5015359;28;20042;-79
2022/08/13 08:21:32;;;;;;;2.45;1.00;;;26.90;83.70;;;;;;5015159;28;20091;-79
2022/08/13 08:24:04;;;;;;;3.20;1.13;;;27.00;83.60;;;;;;5014564;28;20042;-80
2022/08/13 08:26:33;;;;;;;4.18;1.13;;;27.10;83.40;;;;;;5015265;28;20100;-79
2022/08/13 08:29:04;;;;;;;3.80;1.10;;;27.30;83.80;;;;;;5015911;28;20505;-79
2022/08/13 08:31:32;;;;;;;2.88;1.17;;;27.40;82.00;;;;;;5014995;28;20080;-82
2022/08/13 08:34:00;;;;;;;2.13;1.05;;;27.50;81.50;;;;;;5015180;28;20045;-82
2022/08/13 08:36:28;;;;;;;6.88;1.10;;;27.50;80.90;;;;;;5015002;28;20038;-82
2022/08/13 08:44:32;;;;;;;4.82;1.23;;;27.80;80.30;;;;;;5015745;28;20049;-81
2022/08/13 08:46:59;;;;;;;2.47;1.00;;;27.90;79.30;;;;;;5034287;28;20041;-82
2022/08/13 08:49:25;;;;;;;6.32;1.20;;;28.00;80.80;;;;;;5033395;28;20115;-82
2022/08/13 08:51:53;;;;;;;3.83;1.15;;;28.10;80.00;;;;;;5033482;28;20053;-82
2022/08/13 08:54:22;;;;;;;3.60;1.27;;;28.10;79.40;;;;;;5033608;28;20480;-83
2022/08/13 08:56:49;;;;;;;4.57;1.27;;;28.20;78.40;;;;;;5035386;28;20045;-81
2022/08/13 08:59:16;;;;;;;9.07;1.23;;;28.20;78.60;;;;;;5034400;28;20520;-79
2022/08/13 09:01:42;;;;;;;3.97;1.40;;;28.30;78.80;;;;;;5034242;28;20054;-82
2022/08/13 09:04:11;;;;;;;;;;;28.40;77.40;;;;;;5034682;28;20536;-81
2022/08/13 09:06:38;;;;;;;2.80;1.10;;;28.50;78.50;;;;;;5034452;28;20269;-82
2022/08/13 09:09:06;;;;;;;1.90;1.10;;;28.60;78.50;;;;;;5034179;28;20099;-83
2022/08/13 09:11:35;;;;;;;2.65;1.27;;;28.70;78.10;;;;;;5034668;28;20065;-84
2022/08/13 09:14:08;;;;;;;4.15;1.20;;;28.70;77.70;;;;;;5016839;28;20049;-89
2022/08/13 09:16:37;;;;;;;4.25;0.90;;;28.90;78.40;;;;;;5033969;28;20492;-83
2022/08/13 09:19:03;;;;;;;4.22;1.20;;;29.00;76.80;;;;;;5034093;28;20056;-83
2022/08/13 09:21:29;;;;;;;3.63;1.10;;;29.10;76.90;;;;;;5033965;28;20049;-85
2022/08/13 09:23:55;;;;;;;6.93;1.30;;;29.20;76.70;;;;;;5034009;28;20045;-82
2022/08/13 09:26:22;;;;;;;4.88;1.10;;;29.30;76.60;;;;;;5033656;28;20038;-84
2022/08/13 09:28:48;;;;;;;2.30;1.10;;;29.20;76.60;;;;;;5033903;28;20100;-81
2022/08/13 09:31:14;;;;;;;3.80;1.10;;;29.30;75.60;;;;;;5034111;28;20041;-82
2022/08/13 09:33:40;;;;;;;3.95;1.30;;;29.30;75.80;;;;;;5032997;28;20049;-86
2022/08/13 09:36:09;;;;;;;2.40;1.20;;;29.40;75.60;;;;;;5033344;28;20392;-84
2022/08/13 09:38:38;;;;;;;3.88;1.13;;;29.60;75.50;;;;;;5033421;28;20470;-82
2022/08/13 09:41:23;;;;;;;2.47;1.27;;;29.70;75.50;;;;;;5033795;28;20049;-80
2022/08/13 09:43:49;;;;;;;2.78;1.10;;;29.80;74.50;;;;;;5032737;28;20038;-80
2022/08/13 09:46:16;;;;;;;3.70;1.10;;;29.90;74.30;;;;;;5033763;28;20041;-83
2022/08/13 09:48:43;;;;;;;2.03;1.00;;;29.90;73.50;;;;;;5033782;28;20122;-79
2022/08/13 09:51:13;;;;;;;2.50;0.98;;;29.90;73.10;;;;;;5033281;28;20502;-81
2022/08/13 09:53:46;;;;;;;6.57;1.30;;;30.00;72.80;;;;;;5033656;28;20053;-78
2022/08/13 09:56:17;;;;;;;6.10;1.20;;;30.00;73.20;;;;;;5033750;28;20511;-79
2022/08/13 09:58:49;;;;;;;2.70;1.08;;;30.10;72.80;;;;;;5034871;28;20045;-81
2022/08/13 10:01:14;;;;;;;3.42;1.17;;;30.20;72.20;;;;;;5030927;28;20539;-78
2022/08/13 10:03:42;;;;;;;4.53;1.30;;;30.20;72.10;;;;;;5028532;28;20076;-79
2022/08/13 10:06:09;;;;;;;3.83;1.10;;;30.30;72.30;;;;;;5017374;28;20213;-78
2022/08/13 10:08:35;;;;;;;2.63;1.13;;;30.20;71.40;;;;;;5016755;28;20084;-82
2022/08/13 10:11:01;;;;;;;3.30;1.00;;;30.40;72.00;;;;;;5017787;28;20089;-81
2022/08/13 10:13:28;;;;;;;;;;;30.40;71.20;;;;;;5018264;28;20052;-81
2022/08/13 10:15:54;;;;;;;4.93;0.93;;;30.50;69.50;;;;;;5017294;28;19921;-84
2022/08/13 10:18:20;;;;;;;2.75;1.00;;;30.50;70.50;;;;;;5016753;28;20057;-87
2022/08/13 10:20:48;;;;;;;2.08;1.00;;;30.50;69.80;;;;;;5016521;28;20049;-85
2022/08/13 10:23:16;;;;;;;1.35;0.82;;;30.50;69.60;;;;;;5016542;28;20045;-83
2022/08/13 10:25:43;;;;;;;3.70;1.10;;;30.50;70.20;;;;;;5016314;28;20041;-83
2022/08/13 10:28:19;;;;;;;3.15;1.10;;;30.60;70.40;;;;;;5017433;28;20042;-86
2022/08/13 10:30:46;;;;;;;3.65;1.05;;;30.80;70.30;;;;;;5016962;28;20054;-84
2022/08/13 10:33:12;;;;;;;4.57;1.10;;;30.80;70.40;;;;;;5017203;28;20158;-81
2022/08/13 10:35:39;;;;;;;1.77;1.05;;;30.80;70.90;;;;;;5016936;28;20536;-82
2022/08/13 10:38:08;;;;;;;4.43;0.90;;;31.00;70.70;;;;;;5016662;28;20575;-81
2022/08/13 10:40:34;;;;;;;2.58;1.00;;;31.10;70.80;;;;;;5015877;28;20065;-81
2022/08/13 10:42:59;;;;;;;1.70;1.00;;;31.10;70.10;;;;;;5017202;28;20046;-82
2022/08/13 10:45:26;;;;;;;2.55;1.10;;;31.20;70.10;;;;;;5017254;28;20164;-84
2022/08/13 10:47:54;;;;;;;2.00;1.10;;;31.10;69.80;;;;;;5018237;28;20359;-77
2022/08/13 10:50:29;;;;;;;3.60;1.20;;;31.10;69.90;;;;;;5016119;28;20466;-84
2022/08/13 10:52:55;;;;;;;5.30;1.20;;;30.90;69.70;;;;;;5017039;28;20043;-85
2022/08/13 10:55:22;;;;;;;;;;;31.00;70.10;;;;;;5017457;28;20081;-84
2022/08/13 10:57:48;;;;;;;3.50;1.13;;;30.90;69.90;;;;;;5015391;28;20020;-81
2022/08/13 11:00:19;;;;;;;3.72;1.10;;;31.00;69.80;;;;;;5016716;28;20129;-84
2022/08/13 11:02:50;;;;;;;3.45;1.10;;;31.10;70.00;;;;;;5015478;28;20042;-83
2022/08/13 11:05:17;;;;;;;3.63;1.10;;;31.10;69.70;;;;;;5016688;28;20046;-82
2022/08/13 11:07:47;;;;;;;3.30;1.00;;;30.90;69.70;;;;;;5016356;28;20478;-82
2022/08/13 11:10:13;;;;;;;5.38;1.27;;;30.90;68.90;;;;;;5015145;28;20050;-80
2022/08/13 11:12:50;;;;;;;3.78;1.00;;;30.90;69.40;;;;;;5016305;28;20111;-79
2022/08/13 11:15:20;;;;;;;3.38;1.10;;;31.00;69.50;;;;;;5016261;28;20054;-76
2022/08/13 11:17:50;;;;;;;3.95;1.25;;;31.10;69.00;;;;;;5015839;28;20482;-86
2022/08/13 11:20:19;;;;;;;4.35;1.00;;;31.30;69.10;;;;;;5015333;28;20042;-80
2022/08/13 11:22:49;;;;;;;3.40;1.17;;;31.40;69.70;;;;;;5023221;28;20050;-84
2022/08/13 11:25:17;;;;;;;2.85;1.05;;;31.60;68.90;;;;;;5017360;28;20053;-82
2022/08/13 11:27:42;;;;;;;3.83;1.08;;;31.80;69.40;;;;;;5018746;28;20045;-84
2022/08/13 11:30:09;;;;;;;2.80;1.30;;;31.80;68.70;;;;;;5016490;28;20042;-85
2022/08/13 11:32:36;;;;;;;4.53;0.85;;;31.90;67.50;;;;;;5015083;28;20052;-82
2022/08/13 11:35:03;;;;;;;4.95;1.30;;;32.00;68.40;;;;;;4999113;28;20049;-77
2022/08/13 11:37:28;;;;;;;2.67;0.90;;;32.00;68.50;;;;;;5016053;28;20038;-80
2022/08/13 11:39:54;;;;;;;3.30;0.90;;;31.90;67.40;;;;;;5016133;28;20104;-79
2022/08/13 11:42:20;;;;;;;3.53;0.97;;;31.80;67.60;;;;;;5016059;28;20045;-80
2022/08/13 11:44:45;;;;;;;1.63;1.10;;;31.60;68.00;;;;;;5015650;28;20806;-78
2022/08/13 11:47:11;;;;;;;4.72;1.30;;;31.20;67.90;;;;;;5015048;28;20057;-80
2022/08/13 11:49:37;;;;;;;3.60;1.20;;;30.80;68.50;;;;;;5015079;28;20046;-77
2022/08/13 11:52:02;;;;;;;3.25;1.00;;;30.90;69.00;;;;;;5016004;28;20065;-80
2022/08/13 11:54:28;;;;;;;2.85;1.00;;;30.90;68.50;;;;;;5014824;28;20061;-77
2022/08/13 11:56:54;;;;;;;2.97;1.10;;;31.10;68.80;;;;;;5016090;28;20124;-83
2022/08/13 11:59:19;;;;;;;1.73;0.80;;;31.30;68.50;;;;;;5015707;28;20285;-83
2022/08/13 12:01:45;;;;;;;3.38;0.93;;;31.20;67.40;;;;;;5014829;28;20042;-80
2022/08/13 12:04:12;;;;;;;2.33;0.93;;;31.40;68.00;;;;;;5014405;28;20132;-81
2022/08/13 12:06:38;;;;;;;3.10;1.10;;;31.40;67.50;;;;;;5015595;28;20073;-80
2022/08/13 12:09:04;;;;;;;;;;;31.60;68.00;;;;;;5015601;28;20096;-80
2022/08/13 12:11:30;;;;;;;3.28;1.30;;;31.90;68.40;;;;;;5015938;28;20361;-80
2022/08/13 12:13:56;;;;;;;3.40;1.00;;;32.00;68.10;;;;;;5015393;28;20080;-81
2022/08/13 12:16:22;;;;;;;4.80;1.17;;;32.30;67.50;;;;;;5015349;28;20041;-80
2022/08/13 12:18:48;;;;;;;2.22;1.15;;;32.30;67.60;;;;;;5015468;28;20054;-80
2022/08/13 12:21:13;;;;;;;2.08;1.10;;;32.40;66.40;;;;;;5015207;28;20053;-80
2022/08/13 12:23:39;;;;;;;2.80;1.27;;;32.40;65.50;;;;;;5015164;28;20073;-81
2022/08/13 12:26:05;;;;;;;4.15;1.20;;;32.40;65.40;;;;;;5015171;28;20557;-80
2022/08/13 12:28:31;;;;;;;1.88;1.10;;;32.50;66.10;;;;;;5015238;28;20049;-80
2022/08/13 12:31:07;;;;;;;1.92;1.10;;;32.60;65.70;;;;;;5015067;28;20133;-80
2022/08/13 12:33:35;;;;;;;3.73;1.10;;;32.70;65.60;;;;;;5015226;28;20041;-80
2022/08/13 12:36:00;;;;;;;5.00;1.10;;;32.70;64.70;;;;;;5014834;28;20596;-81
2022/08/13 12:38:27;;;;;;;3.00;1.02;;;32.70;65.60;;;;;;5015468;28;20053;-81
2022/08/13 12:40:53;;;;;;;1.88;0.90;;;32.70;64.80;;;;;;5015272;28;20058;-81
2022/08/13 12:43:18;;;;;;;2.83;0.93;;;32.70;64.80;;;;;;5014869;28;20272;-81
2022/08/13 12:45:44;;;;;;;2.05;1.20;;;32.70;65.20;;;;;;5015094;28;20046;-81
2022/08/13 12:48:12;;;;;;;3.03;1.00;;;32.70;65.60;;;;;;5014730;28;20046;-81
2022/08/13 12:50:40;;;;;;;1.70;1.00;;;32.50;65.30;;;;;;5014582;28;20104;-81
2022/08/13 12:53:06;;;;;;;4.47;1.40;;;32.50;65.90;;;;;;5013394;28;20100;-81
2022/08/13 12:55:36;;;;;;;2.47;1.02;;;32.40;65.30;;;;;;5015268;28;20558;-80
2022/08/13 12:58:13;;;;;;;3.03;1.00;;;32.50;66.10;;;;;;5014520;28;20049;-81
2022/08/13 13:00:39;;;;;;;3.97;1.27;;;32.40;66.00;;;;;;5014456;28;20132;-81
2022/08/13 13:03:05;;;;;;;4.75;1.20;;;32.10;65.50;;;;;;5014497;28;20084;-81
2022/08/13 13:05:31;;;;;;;3.42;1.38;;;31.90;66.10;;;;;;5013144;28;20046;-81
2022/08/13 13:07:57;;;;;;;2.88;1.05;;;31.70;66.30;;;;;;5014449;28;20065;-81
2022/08/13 13:10:23;;;;;;;1.88;1.05;;;31.70;65.90;;;;;;5014251;28;20093;-80
2022/08/13 13:12:48;;;;;;;2.95;1.25;;;31.90;67.40;;;;;;5014307;28;20474;-81
2022/08/13 13:15:14;;;;;;;1.83;1.20;;;32.10;67.50;;;;;;5014721;28;20089;-81
2022/08/13 13:17:40;;;;;;;3.42;1.15;;;32.30;66.60;;;;;;5013092;28;20492;-81